KLAW/LAW METAR and TAF weather

Enter ICAO airport designator
Station Type Date Time Source
KLAW METAR 2020/08/14 01:53 UTC NOAA

KLAW 140153Z AUTO 13010KT 10SM CLR 34/18 A2980 RMK AO2 SLP075 T03390178


Station Type Date Time Source
KLAW Decoded METAR 2020/08/14 01:53 UTC NOAA

LAWTON - FORT SILL REGIONAL, OK, United States (KLAW) 34-34N 98-25W 337M
Aug 13, 2020 - 09:53 PM EDT / 2020.08.14 0153 UTC
Wind: from the SE (130 degrees) at 12 MPH (10 KT):0
Visibility: 10 mile(s):0
Sky conditions: clear
Temperature: 93.0 F (33.9 C)
Heat index: 94.6 F (34.8 C):1
Dew Point: 64.0 F (17.8 C)
Relative Humidity: 38%
Pressure (altimeter): 29.8 in. Hg (1009 hPa)
ob: KLAW 140153Z AUTO 13010KT 10SM CLR 34/18 A2980 RMK AO2 SLP075 T03390178
cycle: 2

Station Type Date Time Source
KLAW TAF 2020/08/13 18:40 UTC NOAA

TAF KLAW 131738Z 1318/1418 22010G17KT P6SM SCT150
FM140100 15010KT P6SM FEW250
FM141000 24005KT P6SM SKC

Example: see airport list